createdAt,value
2019-02-12T00:00:46.293Z,0.37
2019-02-12T00:01:46.326Z,0.35
2019-02-12T00:02:46.226Z,0.28
2019-02-12T00:03:46.192Z,0.45
2019-02-12T00:04:46.203Z,0.45
2019-02-12T00:05:46.090Z,0.39
2019-02-12T00:06:46.058Z,0.39
2019-02-12T00:07:46.163Z,0.35
2019-02-12T00:08:46.166Z,0.42
2019-02-12T00:09:46.080Z,0.42
2019-02-12T00:10:46.051Z,0.47
2019-02-12T00:11:45.693Z,0.48
2019-02-12T00:12:45.988Z,0.39
2019-02-12T00:13:46.257Z,0.41
2019-02-12T00:14:45.665Z,0.48
2019-02-12T00:15:45.993Z,0.48
2019-02-12T00:16:45.556Z,0.41
2019-02-12T00:17:45.271Z,0.42
2019-02-12T00:18:45.735Z,0.41
2019-02-12T00:19:45.461Z,0.5
2019-02-12T00:20:45.689Z,0.5
2019-02-12T00:21:45.673Z,0.45
2019-02-12T00:22:45.658Z,0.53
2019-02-12T00:23:45.641Z,0.39
2019-02-12T00:24:45.368Z,0.42
2019-02-12T00:25:45.354Z,0.44
2019-02-12T00:26:45.626Z,0.57
2019-02-12T00:27:46.040Z,0.57
2019-02-12T00:28:45.539Z,0.57
2019-02-12T00:29:45.524Z,0.57
2019-02-12T00:30:45.517Z,0.44
2019-02-12T00:31:45.494Z,0.57
2019-02-12T00:32:45.473Z,0.45
2019-02-12T00:33:45.444Z,0.47
2019-02-12T00:34:45.428Z,0.48
2019-02-12T00:35:45.412Z,0.5
2019-02-12T00:36:45.449Z,0.45
2019-02-12T00:37:45.376Z,0.48
2019-02-12T00:38:45.347Z,0.5
2019-02-12T00:39:45.333Z,0.5
2019-02-12T00:40:45.310Z,0.52
2019-02-12T00:41:45.318Z,0.52
2019-02-12T00:42:45.270Z,0.47
2019-02-12T00:43:45.269Z,0.44
2019-02-12T00:44:44.998Z,0.5
2019-02-12T00:45:45.236Z,0.56
2019-02-12T00:46:45.196Z,0.5
2019-02-12T00:47:45.181Z,0.5
2019-02-12T00:48:45.168Z,0.5
2019-02-12T00:49:44.891Z,0.57
2019-02-12T00:50:45.124Z,0.5
2019-02-12T00:51:45.278Z,0.56
2019-02-12T00:52:45.093Z,0.53
2019-02-12T00:53:45.086Z,0.53
2019-02-12T00:54:45.059Z,0.56
2019-02-12T00:55:45.055Z,0.5
2019-02-12T00:56:45.024Z,0.57
2019-02-12T00:57:44.997Z,0.53
2019-02-12T00:58:44.971Z,0.48
2019-02-12T00:59:44.957Z,0.53
2019-02-12T01:00:44.946Z,0.53
2019-02-12T01:01:44.927Z,0.56
2019-02-12T01:02:44.647Z,0.5
2019-02-12T01:03:44.873Z,0.56
2019-02-12T01:04:44.363Z,0.52
2019-02-12T01:05:44.836Z,0.53
2019-02-12T01:06:44.825Z,0.48
2019-02-12T01:07:44.801Z,0.56
2019-02-12T01:08:44.532Z,0.56
2019-02-12T01:09:44.513Z,0.57
2019-02-12T01:10:44.752Z,0.52
2019-02-12T01:11:44.723Z,0.58
2019-02-12T01:12:44.707Z,0.48
2019-02-12T01:13:44.733Z,0.52
2019-02-12T01:14:44.666Z,0.5
2019-02-12T01:15:44.646Z,0.57
2019-02-12T01:16:44.648Z,0.53
2019-02-12T01:17:44.369Z,0.53
2019-02-12T01:18:44.593Z,0.53
2019-02-12T01:19:44.569Z,0.56
2019-02-12T01:20:44.566Z,0.53
2019-02-12T01:21:44.536Z,0.56
2019-02-12T01:22:44.519Z,0.48
2019-02-12T01:23:44.497Z,0.48
2019-02-12T01:24:44.487Z,0.47
2019-02-12T01:25:44.476Z,0.52
2019-02-12T01:26:44.438Z,0.52
2019-02-12T01:27:44.432Z,0.48
2019-02-12T01:28:44.161Z,0.53
2019-02-12T01:29:44.391Z,0.48
2019-02-12T01:30:44.366Z,0.52
2019-02-12T01:31:44.116Z,0.44
2019-02-12T01:32:44.470Z,0.5
2019-02-12T01:33:44.324Z,0.53
2019-02-12T01:34:44.058Z,0.48
2019-02-12T01:35:44.280Z,0.44
2019-02-12T01:36:44.252Z,0.6
2019-02-12T01:37:44.237Z,0.52
2019-02-12T01:38:44.214Z,0.44
2019-02-12T01:39:44.192Z,0.44
2019-02-12T01:40:45.763Z,0.5
2019-02-12T01:41:44.155Z,0.48
2019-02-12T01:42:43.889Z,0.47
2019-02-12T01:43:44.121Z,0.57
2019-02-12T01:44:44.099Z,0.5
2019-02-12T01:45:44.093Z,0.53
2019-02-12T01:46:43.813Z,0.45
2019-02-12T01:47:44.042Z,0.5
2019-02-12T01:48:44.023Z,0.52
2019-02-12T01:49:43.757Z,0.47
2019-02-12T01:50:44.008Z,0.52
2019-02-12T01:51:43.985Z,0.52
2019-02-12T01:52:44.051Z,0.53
2019-02-12T01:53:43.928Z,0.52
2019-02-12T01:54:43.919Z,0.5
2019-02-12T01:55:43.893Z,0.47
2019-02-12T01:56:43.869Z,0.47
2019-02-12T01:57:43.854Z,0.48
2019-02-12T01:58:43.600Z,0.5
2019-02-12T01:59:43.815Z,0.48
2019-02-12T02:00:43.812Z,0.47
2019-02-12T02:01:43.775Z,0.52
2019-02-12T02:02:43.813Z,0.53
2019-02-12T02:03:43.740Z,0.57
2019-02-12T02:04:43.724Z,0.53
2019-02-12T02:05:43.699Z,0.48
2019-02-12T02:06:43.681Z,0.48
2019-02-12T02:07:43.662Z,0.48
2019-02-12T02:08:43.393Z,0.44
2019-02-12T02:09:43.630Z,0.5
2019-02-12T02:10:43.712Z,0.38
2019-02-12T02:11:43.358Z,0.48
2019-02-12T02:12:43.320Z,0.44
2019-02-12T02:13:43.567Z,0.45
2019-02-12T02:14:43.532Z,0.47
2019-02-12T02:15:43.275Z,0.39
2019-02-12T02:16:43.491Z,0.37
2019-02-12T02:17:43.477Z,0.41
2019-02-12T02:18:43.452Z,0.39
2019-02-12T02:19:43.438Z,0.44
2019-02-12T02:20:43.420Z,0.48
2019-02-12T02:21:48.875Z,0.37
2019-02-12T02:22:43.398Z,0.47
2019-02-12T02:23:43.359Z,0.45
2019-02-12T02:24:43.089Z,0.39
2019-02-12T02:25:43.319Z,0.45
2019-02-12T02:26:43.050Z,0.42
2019-02-12T02:27:43.284Z,0.47
2019-02-12T02:28:43.262Z,0.45
2019-02-12T02:29:42.996Z,0.44
2019-02-12T02:30:42.993Z,0.37
2019-02-12T02:31:43.216Z,0.37
2019-02-12T02:32:43.192Z,0.47
2019-02-12T02:33:43.180Z,0.47
2019-02-12T02:34:43.165Z,0.44
2019-02-12T02:35:43.133Z,0.47
2019-02-12T02:36:43.120Z,0.32
2019-02-12T02:37:42.846Z,0.32
2019-02-12T02:38:43.139Z,0.39
2019-02-12T02:39:43.056Z,0.38
2019-02-12T02:40:43.048Z,0.31
2019-02-12T02:41:43.026Z,0.45
2019-02-12T02:42:42.533Z,0.39
2019-02-12T02:43:42.982Z,0.45
2019-02-12T02:44:42.955Z,0.31
2019-02-12T02:45:42.953Z,0.39
2019-02-12T02:46:42.929Z,0.34
2019-02-12T02:47:42.941Z,0.32
2019-02-12T02:48:42.898Z,0.45
2019-02-12T02:49:42.894Z,0.44
2019-02-12T02:50:42.845Z,0.31
2019-02-12T02:51:42.826Z,0.44
2019-02-12T02:52:42.808Z,0.42
2019-02-12T02:53:42.785Z,0.31
2019-02-12T02:54:42.766Z,0.38
2019-02-12T02:55:42.757Z,0.28
2019-02-12T02:56:42.770Z,0.38
2019-02-12T02:57:42.462Z,0.31
2019-02-12T02:58:42.695Z,0.37
2019-02-12T02:59:42.720Z,0.39
2019-02-12T03:00:42.651Z,0.39
2019-02-12T03:01:42.631Z,0.32
2019-02-12T03:02:42.613Z,0.27
2019-02-12T03:03:42.346Z,0.34
2019-02-12T03:04:42.581Z,0.32
2019-02-12T03:05:42.554Z,0.37
2019-02-12T03:06:42.535Z,0.31
2019-02-12T03:07:42.564Z,0.27
2019-02-12T03:08:42.508Z,0.31
2019-02-12T03:09:42.236Z,0.37
2019-02-12T03:10:42.464Z,0.35
2019-02-12T03:11:42.445Z,0.34
2019-02-12T03:12:42.426Z,0.45
2019-02-12T03:13:42.602Z,0.41
2019-02-12T03:14:42.395Z,0.39
2019-02-12T03:15:42.384Z,0.39
2019-02-12T03:16:42.370Z,0.38
2019-02-12T03:17:42.338Z,0.35
2019-02-12T03:18:42.307Z,0.35
2019-02-12T03:19:42.303Z,0.37
2019-02-12T03:20:42.272Z,0.35
2019-02-12T03:21:42.261Z,0.35
2019-02-12T03:22:42.235Z,0.39
2019-02-12T03:23:42.222Z,0.5
2019-02-12T03:24:42.227Z,0.32
2019-02-12T03:25:42.176Z,0.35
2019-02-12T03:26:42.179Z,0.41
2019-02-12T03:27:41.899Z,0.37
2019-02-12T03:28:42.121Z,0.42
2019-02-12T03:29:42.099Z,0.44
2019-02-12T03:30:42.096Z,0.34
2019-02-12T03:31:42.071Z,0.37
2019-02-12T03:32:41.895Z,0.41
2019-02-12T03:33:42.046Z,0.45
2019-02-12T03:34:42.000Z,0.37
2019-02-12T03:35:41.986Z,0.47
2019-02-12T03:36:41.980Z,0.41
2019-02-12T03:37:41.948Z,0.32
2019-02-12T03:38:41.933Z,0.34
2019-02-12T03:39:41.908Z,0.34
2019-02-12T03:40:41.905Z,0.44
2019-02-12T03:41:41.869Z,0.39
2019-02-12T03:42:41.878Z,0.32
2019-02-12T03:43:41.844Z,0.47
2019-02-12T03:44:41.821Z,0.47
2019-02-12T03:45:41.549Z,0.37
2019-02-12T03:46:41.795Z,0.37
2019-02-12T03:47:41.772Z,0.31
2019-02-12T03:48:41.738Z,0.45
2019-02-12T03:49:41.728Z,0.44
2019-02-12T03:50:41.701Z,0.32
2019-02-12T03:51:41.431Z,0.44
2019-02-12T03:52:41.412Z,0.35
2019-02-12T03:53:41.650Z,0.45
2019-02-12T03:54:41.645Z,0.31
2019-02-12T03:55:41.602Z,0.42
2019-02-12T03:56:41.589Z,0.45
2019-02-12T03:57:41.578Z,0.34
2019-02-12T03:58:41.546Z,0.31
2019-02-12T03:59:41.531Z,0.32
2019-02-12T04:00:41.261Z,0.37
2019-02-12T04:01:41.502Z,0.28
2019-02-12T04:02:41.473Z,0.24
2019-02-12T04:03:41.565Z,0.28
2019-02-12T04:04:41.433Z,0.24
2019-02-12T04:05:41.168Z,0.31
2019-02-12T04:06:41.396Z,0.34
2019-02-12T04:07:41.385Z,0.28
2019-02-12T04:08:41.363Z,0.34
2019-02-12T04:09:41.336Z,0.26
2019-02-12T04:10:41.346Z,0.34
2019-02-12T04:11:41.305Z,0.34
2019-02-12T04:12:41.033Z,0.26
2019-02-12T04:13:41.014Z,0.27
2019-02-12T04:14:41.241Z,0.24
2019-02-12T04:15:41.223Z,0.31
2019-02-12T04:16:40.984Z,0.27
2019-02-12T04:17:41.186Z,0.32
2019-02-12T04:18:40.918Z,0.32
2019-02-12T04:19:41.155Z,0.23
2019-02-12T04:20:41.143Z,0.28
2019-02-12T04:21:41.109Z,0.28
2019-02-12T04:22:41.090Z,0.21
2019-02-12T04:23:40.578Z,0.24
2019-02-12T04:24:41.054Z,0.24
2019-02-12T04:25:41.036Z,0.26
2019-02-12T04:26:41.017Z,0.26
2019-02-12T04:27:40.996Z,0.23
2019-02-12T04:28:40.988Z,0.34
2019-02-12T04:29:40.959Z,0.28
2019-02-12T04:30:40.934Z,0.26
2019-02-12T04:31:40.917Z,0.24
2019-02-12T04:32:40.906Z,0.2
2019-02-12T04:33:40.879Z,0.37
2019-02-12T04:34:40.863Z,0.27
2019-02-12T04:35:40.596Z,0.24
2019-02-12T04:36:40.838Z,0.24
2019-02-12T04:37:40.813Z,0.21
2019-02-12T04:38:40.785Z,0.27
2019-02-12T04:39:40.762Z,0.28
2019-02-12T04:40:40.747Z,0.28
2019-02-12T04:41:40.728Z,0.28
2019-02-12T04:42:40.461Z,0.19
2019-02-12T04:43:40.698Z,0.2
2019-02-12T04:44:40.668Z,0.2
2019-02-12T04:45:40.405Z,0.21
2019-02-12T04:46:40.640Z,0.16
2019-02-12T04:47:40.694Z,0.21
2019-02-12T04:48:40.597Z,0.19
2019-02-12T04:49:40.572Z,0.17
2019-02-12T04:50:40.553Z,0.21
2019-02-12T04:51:40.544Z,0.24
2019-02-12T04:52:40.271Z,0.14
2019-02-12T04:53:40.495Z,0.16
2019-02-12T04:54:40.491Z,0.19
2019-02-12T04:55:40.208Z,0.21
2019-02-12T04:56:40.190Z,0.17
2019-02-12T04:57:40.427Z,0.14
2019-02-12T04:58:40.407Z,0.21
2019-02-12T04:59:40.379Z,0.21
2019-02-12T05:00:40.364Z,0.19
2019-02-12T05:01:40.100Z,0.2
2019-02-12T05:02:40.324Z,0.2
2019-02-12T05:03:40.303Z,0.2
2019-02-12T05:04:40.282Z,0.13
2019-02-12T05:05:40.312Z,0.19
2019-02-12T05:06:40.031Z,0.06
2019-02-12T05:07:40.251Z,0.1
2019-02-12T05:08:40.209Z,0.17
2019-02-12T05:09:40.187Z,0.13
2019-02-12T05:10:40.166Z,0.09
2019-02-12T05:11:40.175Z,0.09
2019-02-12T05:12:40.132Z,0.14
2019-02-12T05:13:40.139Z,0.13
2019-02-12T05:14:40.132Z,0.14
2019-02-12T05:15:40.075Z,0.17
2019-02-12T05:16:40.072Z,0.14
2019-02-12T05:17:40.032Z,0.09
2019-02-12T05:18:39.773Z,0.1
2019-02-12T05:19:39.995Z,0.14
2019-02-12T05:20:39.979Z,0.1
2019-02-12T05:21:39.954Z,0.09
2019-02-12T05:22:48.459Z,0.14
2019-02-12T05:23:39.922Z,0.17
2019-02-12T05:24:39.912Z,0.2
2019-02-12T05:25:39.898Z,0.1
2019-02-12T05:26:39.864Z,0.13
2019-02-12T05:27:39.846Z,0.1
2019-02-12T05:28:39.821Z,0.13
2019-02-12T05:29:39.808Z,0.1
2019-02-12T05:30:39.830Z,0.16
2019-02-12T05:31:39.771Z,0.13
2019-02-12T05:32:39.746Z,0.05
2019-02-12T05:33:39.481Z,0.09
2019-02-12T05:34:39.807Z,0.13
2019-02-12T05:35:39.687Z,0.14
2019-02-12T05:36:39.423Z,0.13
2019-02-12T05:37:39.655Z,0.16
2019-02-12T05:38:39.628Z,0.1
2019-02-12T05:39:39.612Z,0.14
2019-02-12T05:40:39.593Z,0.1
2019-02-12T05:41:39.581Z,0.08
2019-02-12T05:42:39.561Z,0.02
2019-02-12T05:43:39.536Z,0.14
2019-02-12T05:44:39.531Z,0.17
2019-02-12T05:45:39.497Z,-0.01
2019-02-12T05:46:39.234Z,0.17
2019-02-12T05:47:39.458Z,0.14
2019-02-12T05:48:39.462Z,0.13
2019-02-12T05:49:39.416Z,0.17
2019-02-12T05:50:39.460Z,0.2
2019-02-12T05:51:39.393Z,0.17
2019-02-12T05:52:39.380Z,0.17
2019-02-12T05:53:39.344Z,0.16
2019-02-12T05:54:39.326Z,0.14
2019-02-12T05:55:39.064Z,0.13
2019-02-12T05:56:39.286Z,0.09
2019-02-12T05:57:39.282Z,0.16
2019-02-12T05:58:39.246Z,0.14
2019-02-12T05:59:39.224Z,0.17
2019-02-12T06:00:39.214Z,0.14
2019-02-12T06:01:39.190Z,0.16
2019-02-12T06:02:39.182Z,0.1
2019-02-12T06:03:39.154Z,0.02
2019-02-12T06:04:39.131Z,0.13
2019-02-12T06:05:38.619Z,0.19
2019-02-12T06:06:39.098Z,0.14
2019-02-12T06:07:39.089Z,0.13
2019-02-12T06:08:39.061Z,0.1
2019-02-12T06:09:39.036Z,0.08
2019-02-12T06:10:39.019Z,0.14
2019-02-12T06:11:38.764Z,0.08
2019-02-12T06:12:38.978Z,0.17
2019-02-12T06:13:38.962Z,0.1
2019-02-12T06:14:38.950Z,0.06
2019-02-12T06:15:38.935Z,0.1
2019-02-12T06:16:38.657Z,0.09
2019-02-12T06:17:38.883Z,-0.02
2019-02-12T06:18:38.861Z,0.13
2019-02-12T06:19:38.595Z,0.1
2019-02-12T06:20:38.828Z,-0.02
2019-02-12T06:21:38.820Z,0.13
2019-02-12T06:22:38.782Z,0.17
2019-02-12T06:23:38.764Z,0.1
2019-02-12T06:24:38.750Z,0.09
2019-02-12T06:25:38.735Z,0.13
2019-02-12T06:26:38.714Z,0.08
2019-02-12T06:27:38.693Z,0.13
2019-02-12T06:28:38.665Z,0.16
2019-02-12T06:29:38.668Z,0.06
2019-02-12T06:30:38.403Z,0.16
2019-02-12T06:31:38.611Z,0.02
2019-02-12T06:32:38.594Z,0.09
2019-02-12T06:33:38.075Z,0.14
2019-02-12T06:34:38.554Z,0.16
2019-02-12T06:35:38.537Z,0.17
2019-02-12T06:36:38.527Z,0.09
2019-02-12T06:37:38.498Z,0.13
2019-02-12T06:38:38.478Z,0.09
2019-02-12T06:39:38.463Z,0.14
2019-02-12T06:40:38.441Z,0.1
2019-02-12T06:41:38.423Z,0.05
2019-02-12T06:42:38.406Z,0.17
2019-02-12T06:43:38.164Z,0.09
2019-02-12T06:44:38.373Z,0.16
2019-02-12T06:45:38.375Z,0.09
2019-02-12T06:46:38.334Z,0.16
2019-02-12T06:47:38.086Z,0.19
2019-02-12T06:48:38.287Z,0.17
2019-02-12T06:49:38.016Z,0.14
2019-02-12T06:50:38.267Z,0.09
2019-02-12T06:51:38.224Z,0.09
2019-02-12T06:52:38.210Z,0.17
2019-02-12T06:53:37.946Z,0.17
2019-02-12T06:54:38.173Z,0.09
2019-02-12T06:55:37.900Z,0.17
2019-02-12T06:56:38.133Z,0.14
2019-02-12T06:57:39.319Z,0.06
2019-02-12T06:58:38.092Z,0.13
2019-02-12T06:59:38.074Z,0.13
2019-02-12T07:00:38.060Z,0.16
2019-02-12T07:01:38.039Z,0.16
2019-02-12T07:02:38.031Z,0.06
2019-02-12T07:03:37.998Z,0.1
2019-02-12T07:04:37.976Z,0.1
2019-02-12T07:05:37.957Z,0.14
2019-02-12T07:06:37.692Z,0.08
2019-02-12T07:07:37.925Z,0.1
2019-02-12T07:08:37.655Z,0.09
2019-02-12T07:09:37.884Z,0.2
2019-02-12T07:10:37.866Z,0.1
2019-02-12T07:11:37.839Z,0.14
2019-02-12T07:12:37.841Z,0.16
2019-02-12T07:13:37.803Z,0.1
2019-02-12T07:14:37.785Z,0.09
2019-02-12T07:15:37.820Z,0.08
2019-02-12T07:16:37.749Z,0.06
2019-02-12T07:17:37.727Z,0.13
2019-02-12T07:18:37.460Z,-0.02
2019-02-12T07:19:37.690Z,0.14
2019-02-12T07:20:37.689Z,0.09
2019-02-12T07:21:37.677Z,0.06
2019-02-12T07:22:37.386Z,0.09
2019-02-12T07:23:37.643Z,0.08
2019-02-12T07:24:37.604Z,0.06
2019-02-12T07:25:37.575Z,0.03
2019-02-12T07:26:37.569Z,0.01
2019-02-12T07:27:37.538Z,-0.02
2019-02-12T07:28:37.514Z,-0.04
2019-02-12T07:29:37.509Z,-0.01
2019-02-12T07:30:37.232Z,-0.04
2019-02-12T07:31:39.471Z,-0.05
2019-02-12T07:32:37.442Z,-0.09
2019-02-12T07:33:37.456Z,-0.18
2019-02-12T07:34:37.401Z,-0.1
2019-02-12T07:35:37.383Z,-0.04
2019-02-12T07:36:37.387Z,-0.01
2019-02-12T07:37:37.348Z,-0.09
2019-02-12T07:38:37.351Z,0.01
2019-02-12T07:39:37.300Z,-0.09
2019-02-12T07:40:37.287Z,-0.01
2019-02-12T07:41:37.264Z,-0.05
2019-02-12T07:42:37.283Z,-0.04
2019-02-12T07:43:37.227Z,-0.02
2019-02-12T07:44:37.210Z,0.03
2019-02-12T07:45:37.194Z,-0.01
2019-02-12T07:46:37.167Z,0.03
2019-02-12T07:47:37.147Z,0.02
2019-02-12T07:48:37.131Z,0.06
2019-02-12T07:49:36.861Z,0.1
2019-02-12T07:50:37.097Z,0.1
2019-02-12T07:51:36.825Z,0.24
2019-02-12T07:52:37.058Z,0.24
2019-02-12T07:53:37.041Z,0.31
2019-02-12T07:54:37.031Z,0.34
2019-02-12T07:55:36.993Z,0.31
2019-02-12T07:56:36.996Z,0.39
2019-02-12T07:57:36.980Z,0.42
2019-02-12T07:58:36.942Z,0.37
2019-02-12T07:59:36.924Z,0.37
2019-02-12T08:00:36.901Z,0.31
2019-02-12T08:01:36.881Z,0.26
2019-02-12T08:02:38.653Z,0.31
2019-02-12T08:03:36.847Z,0.35
2019-02-12T08:04:36.833Z,0.21
2019-02-12T08:05:36.804Z,0.35
2019-02-12T08:06:36.781Z,0.38
2019-02-12T08:07:36.765Z,0.31
2019-02-12T08:08:36.743Z,0.41
2019-02-12T08:09:36.727Z,0.41
2019-02-12T08:10:36.725Z,0.38
2019-02-12T08:11:36.441Z,0.42
2019-02-12T08:12:36.499Z,0.44
2019-02-12T08:13:36.651Z,0.41
2019-02-12T08:14:36.636Z,0.32
2019-02-12T08:15:36.611Z,0.41
2019-02-12T08:16:36.592Z,0.37
2019-02-12T08:17:36.577Z,0.41
2019-02-12T08:18:36.308Z,0.41
2019-02-12T08:19:36.538Z,0.5
2019-02-12T08:20:36.270Z,0.45
2019-02-12T08:21:36.376Z,0.56
2019-02-12T08:22:36.480Z,0.58
2019-02-12T08:23:45.813Z,0.5
2019-02-12T08:24:36.456Z,0.44
2019-02-12T08:25:36.422Z,0.57
2019-02-12T08:26:36.404Z,0.52
2019-02-12T08:27:36.410Z,0.45
2019-02-12T08:28:36.374Z,0.6
2019-02-12T08:29:36.410Z,0.63
2019-02-12T08:30:36.330Z,0.64
2019-02-12T08:31:36.308Z,0.64
2019-02-12T08:32:36.051Z,0.6
2019-02-12T08:33:36.029Z,0.5
2019-02-12T08:34:36.258Z,0.53
2019-02-12T08:35:35.992Z,0.58
2019-02-12T08:36:36.214Z,0.5
2019-02-12T08:37:36.849Z,0.63
2019-02-12T08:38:36.210Z,0.64
2019-02-12T08:39:36.164Z,0.61
2019-02-12T08:40:35.920Z,0.72
2019-02-12T08:41:36.120Z,0.72
2019-02-12T08:42:36.100Z,0.72
2019-02-12T08:43:36.095Z,0.89
2019-02-12T08:44:35.823Z,0.78
2019-02-12T08:45:36.073Z,0.81
2019-02-12T08:46:36.022Z,0.94
2019-02-12T08:47:36.022Z,0.92
2019-02-12T08:48:35.982Z,0.79
2019-02-12T08:49:35.983Z,0.84
2019-02-12T08:50:35.965Z,0.82
2019-02-12T08:51:35.933Z,0.86
2019-02-12T08:52:35.913Z,0.96
2019-02-12T08:53:35.643Z,0.99
2019-02-12T08:54:35.879Z,1.04
2019-02-12T08:55:36.854Z,1.04
2019-02-12T08:56:35.839Z,1.08
2019-02-12T08:57:35.818Z,1.17
2019-02-12T08:58:35.820Z,1.18
2019-02-12T08:59:35.779Z,1.22
2019-02-12T09:00:35.758Z,1.21
2019-02-12T09:01:35.743Z,1.22
2019-02-12T09:02:35.726Z,1.22
2019-02-12T09:03:35.532Z,1.29
2019-02-12T09:04:35.207Z,1.29
2019-02-12T09:05:35.684Z,1.32
2019-02-12T09:06:35.647Z,1.33
2019-02-12T09:07:35.638Z,1.35
2019-02-12T09:08:35.647Z,1.3
2019-02-12T09:09:35.598Z,1.32
2019-02-12T09:10:35.577Z,1.38
2019-02-12T09:11:35.324Z,1.46
2019-02-12T09:12:35.543Z,1.42
2019-02-12T09:13:35.529Z,1.46
2019-02-12T09:14:35.503Z,1.54
2019-02-12T09:15:35.507Z,1.57
2019-02-12T09:16:34.966Z,1.56
2019-02-12T09:17:35.446Z,1.61
2019-02-12T09:18:35.203Z,1.57
2019-02-12T09:19:35.412Z,1.79
2019-02-12T09:20:35.393Z,1.71
2019-02-12T09:21:35.412Z,1.69
2019-02-12T09:22:35.374Z,1.75
2019-02-12T09:23:35.337Z,1.71
2019-02-12T09:24:35.323Z,1.86
2019-02-12T09:25:35.316Z,1.86
2019-02-12T09:26:35.284Z,1.86
2019-02-12T09:27:35.015Z,2.01
2019-02-12T09:28:35.246Z,1.92
2019-02-12T09:29:35.258Z,1.92
2019-02-12T09:30:35.209Z,1.93
2019-02-12T09:31:35.201Z,1.94
2019-02-12T09:32:35.177Z,1.97
2019-02-12T09:33:35.158Z,1.92
2019-02-12T09:34:35.142Z,1.97
2019-02-12T09:35:34.888Z,2.04
2019-02-12T09:36:35.127Z,2.05
2019-02-12T09:37:36.460Z,2.11
2019-02-12T09:38:34.823Z,2.12
2019-02-12T09:39:35.050Z,2.04
2019-02-12T09:40:34.778Z,2.08
2019-02-12T09:41:35.016Z,2.15
2019-02-12T09:42:34.996Z,1.97
2019-02-12T09:43:34.977Z,2.02
2019-02-12T09:44:34.768Z,1.92
2019-02-12T09:45:34.938Z,1.98
2019-02-12T09:46:34.934Z,2.01
2019-02-12T09:47:34.910Z,1.78
2019-02-12T09:48:34.899Z,1.79
2019-02-12T09:49:34.871Z,1.84
2019-02-12T09:50:34.864Z,1.87
2019-02-12T09:51:34.588Z,1.92
2019-02-12T09:52:34.816Z,1.98
2019-02-12T09:53:34.796Z,2.16
2019-02-12T09:54:34.799Z,2.06
2019-02-12T09:55:34.760Z,2.15
2019-02-12T09:56:34.761Z,2.18
2019-02-12T09:57:34.483Z,2.22
2019-02-12T09:58:34.726Z,2.23
2019-02-12T09:59:34.704Z,2.23
2019-02-12T10:00:34.678Z,2.33
2019-02-12T10:01:34.681Z,2.38
2019-02-12T10:02:34.650Z,2.31
2019-02-12T10:03:34.628Z,2.33
2019-02-12T10:04:34.609Z,2.48
2019-02-12T10:05:34.588Z,2.49
2019-02-12T10:06:34.323Z,2.58
2019-02-12T10:07:34.835Z,2.55
2019-02-12T10:08:34.543Z,2.72
2019-02-12T10:09:34.524Z,2.8
2019-02-12T10:10:34.556Z,2.83
2019-02-12T10:11:34.486Z,2.85
2019-02-12T10:12:34.518Z,2.87
2019-02-12T10:13:34.447Z,2.88
2019-02-12T10:14:34.435Z,2.93
2019-02-12T10:15:34.418Z,2.93
2019-02-12T10:16:34.395Z,2.95
2019-02-12T10:17:34.379Z,2.95
2019-02-12T10:18:34.366Z,2.93
2019-02-12T10:19:34.344Z,3.05
2019-02-12T10:20:34.330Z,2.91
2019-02-12T10:21:34.334Z,2.93
2019-02-12T10:22:34.061Z,2.98
2019-02-12T10:23:34.275Z,2.96
2019-02-12T10:24:34.318Z,2.83
2019-02-12T10:25:34.242Z,3.01
2019-02-12T10:26:34.255Z,3.03
2019-02-12T10:27:34.253Z,2.96
2019-02-12T10:28:34.190Z,2.84
2019-02-12T10:29:34.178Z,2.9
2019-02-12T10:30:34.161Z,2.83
2019-02-12T10:31:34.146Z,2.83
2019-02-12T10:32:33.876Z,2.81
2019-02-12T10:33:34.114Z,2.87
2019-02-12T10:34:34.093Z,2.88
2019-02-12T10:35:34.080Z,2.9
2019-02-12T10:36:34.052Z,2.9
2019-02-12T10:37:34.033Z,2.81
2019-02-12T10:38:33.772Z,2.85
2019-02-12T10:39:34.013Z,2.85
2019-02-12T10:40:33.736Z,2.77
2019-02-12T10:41:33.987Z,2.69
2019-02-12T10:42:33.956Z,2.72
2019-02-12T10:43:33.932Z,2.66
2019-02-12T10:44:33.917Z,2.62
2019-02-12T10:45:33.923Z,2.54
2019-02-12T10:46:33.888Z,2.52
2019-02-12T10:47:33.907Z,2.59
2019-02-12T10:48:33.854Z,2.45
2019-02-12T10:49:33.835Z,2.52
2019-02-12T10:50:33.822Z,2.34
2019-02-12T10:51:33.803Z,2.33
2019-02-12T10:52:33.781Z,2.42
2019-02-12T10:53:33.928Z,2.47
2019-02-12T10:54:33.773Z,2.47
2019-02-12T10:55:33.761Z,2.42
2019-02-12T10:56:33.707Z,2.34
2019-02-12T10:57:33.692Z,2.42
2019-02-12T10:58:33.685Z,2.38
2019-02-12T10:59:33.658Z,2.33
2019-02-12T11:00:33.396Z,2.54
2019-02-12T11:01:33.622Z,2.54
2019-02-12T11:02:33.606Z,2.6
2019-02-12T11:03:33.590Z,2.7
2019-02-12T11:04:33.570Z,2.77
2019-02-12T11:05:33.558Z,2.78
2019-02-12T11:06:33.292Z,2.91
2019-02-12T11:07:33.522Z,2.96
2019-02-12T11:08:33.503Z,2.99
2019-02-12T11:09:33.485Z,3.03
2019-02-12T11:10:33.469Z,3.06
2019-02-12T11:11:33.450Z,3.06
2019-02-12T11:12:33.429Z,3.03
2019-02-12T11:13:33.424Z,3.14
2019-02-12T11:14:33.413Z,3.21
2019-02-12T11:15:33.133Z,3.19
2019-02-12T11:16:33.361Z,3.24
2019-02-12T11:17:33.357Z,3.35
2019-02-12T11:18:33.327Z,3.43
2019-02-12T11:19:33.310Z,3.51
2019-02-12T11:20:33.050Z,3.57
2019-02-12T11:21:33.283Z,3.61
2019-02-12T11:22:33.268Z,3.71
2019-02-12T11:23:33.257Z,3.9
2019-02-12T11:24:40.124Z,3.86
2019-02-12T11:25:33.212Z,3.86
2019-02-12T11:26:33.197Z,3.79
2019-02-12T11:27:33.179Z,3.76
2019-02-12T11:28:33.168Z,3.78
2019-02-12T11:29:33.147Z,3.71
2019-02-12T11:30:33.131Z,3.66
2019-02-12T11:31:33.115Z,3.71
2019-02-12T11:32:32.861Z,3.66
2019-02-12T11:33:33.081Z,3.61
2019-02-12T11:34:33.067Z,3.56
2019-02-12T11:35:33.059Z,3.64
2019-02-12T11:36:33.031Z,3.61
2019-02-12T11:37:33.032Z,3.63
2019-02-12T11:38:33.002Z,3.57
2019-02-12T11:39:32.987Z,3.56
2019-02-12T11:40:32.714Z,3.48
2019-02-12T11:41:32.954Z,3.53
2019-02-12T11:42:32.935Z,3.61
2019-02-12T11:43:32.913Z,3.66
2019-02-12T11:44:32.903Z,3.89
2019-02-12T11:45:32.886Z,4.07
2019-02-12T11:46:32.874Z,4.21
2019-02-12T11:47:32.850Z,4.21
2019-02-12T11:48:32.835Z,4.22
2019-02-12T11:49:32.863Z,4.26
2019-02-12T11:50:32.806Z,4.03
2019-02-12T11:51:32.797Z,4.18
2019-02-12T11:52:32.774Z,4.2
2019-02-12T11:53:32.901Z,4.21
2019-02-12T11:54:32.740Z,4.21
2019-02-12T11:55:32.725Z,4.12
2019-02-12T11:56:32.717Z,4.14
2019-02-12T11:57:32.689Z,4.11
2019-02-12T11:58:32.430Z,4.11
2019-02-12T11:59:32.659Z,4.1
2019-02-12T12:00:32.642Z,3.93
2019-02-12T12:01:32.620Z,3.79
2019-02-12T12:02:32.614Z,3.64
2019-02-12T12:03:32.593Z,3.51
2019-02-12T12:04:32.580Z,3.4
2019-02-12T12:05:32.565Z,3.48
2019-02-12T12:06:32.543Z,3.35
2019-02-12T12:07:32.530Z,3.2
2019-02-12T12:08:32.509Z,3.26
2019-02-12T12:09:32.496Z,3.21
2019-02-12T12:10:32.487Z,3.21
2019-02-12T12:11:32.467Z,3.14
2019-02-12T12:12:32.443Z,3.06
2019-02-12T12:13:32.427Z,3.05
2019-02-12T12:14:32.415Z,2.99
2019-02-12T12:15:32.395Z,2.98
2019-02-12T12:16:32.147Z,2.83
2019-02-12T12:17:32.359Z,2.78
2019-02-12T12:18:32.345Z,2.77
2019-02-12T12:19:32.328Z,2.66
2019-02-12T12:20:32.311Z,2.59
2019-02-12T12:21:32.300Z,2.69
2019-02-12T12:22:32.279Z,2.66
2019-02-12T12:23:32.263Z,2.69
2019-02-12T12:24:32.239Z,2.69
2019-02-12T12:25:32.228Z,2.66
2019-02-12T12:26:32.209Z,2.69
2019-02-12T12:27:32.188Z,2.7
2019-02-12T12:28:32.170Z,2.73
2019-02-12T12:29:32.156Z,2.83
2019-02-12T12:30:31.897Z,2.81
2019-02-12T12:31:32.133Z,2.85
2019-02-12T12:32:32.107Z,2.88
2019-02-12T12:33:32.091Z,2.87
2019-02-12T12:34:32.075Z,2.96
2019-02-12T12:35:32.064Z,3.01
2019-02-12T12:36:32.040Z,3.08
2019-02-12T12:37:32.024Z,3.14
2019-02-12T12:38:32.006Z,3.24
2019-02-12T12:39:31.988Z,3.39
2019-02-12T12:40:31.976Z,3.45
2019-02-12T12:41:31.955Z,3.45
2019-02-12T12:42:31.933Z,3.46
2019-02-12T12:43:32.298Z,3.49
2019-02-12T12:44:31.906Z,3.48
2019-02-12T12:45:31.889Z,3.43
2019-02-12T12:46:31.869Z,3.42
2019-02-12T12:47:31.878Z,3.42
2019-02-12T12:48:31.587Z,3.48
2019-02-12T12:49:32.196Z,3.39
2019-02-12T12:50:31.598Z,3.45
2019-02-12T12:51:31.797Z,3.54
2019-02-12T12:52:31.790Z,3.56
2019-02-12T12:53:31.751Z,3.58
2019-02-12T12:54:31.509Z,3.58
2019-02-12T12:55:31.718Z,3.67
2019-02-12T12:56:31.706Z,3.72
2019-02-12T12:57:31.690Z,3.66
2019-02-12T12:58:31.445Z,3.63
2019-02-12T12:59:31.662Z,3.54
2019-02-12T13:00:31.386Z,3.49
2019-02-12T13:01:31.383Z,3.4
2019-02-12T13:02:31.604Z,3.51
2019-02-12T13:03:31.586Z,3.45
2019-02-12T13:04:31.569Z,3.43
2019-02-12T13:05:31.557Z,3.34
2019-02-12T13:06:31.336Z,3.24
2019-02-12T13:07:31.524Z,3.11
2019-02-12T13:08:31.261Z,3.14
2019-02-12T13:09:31.488Z,3.19
2019-02-12T13:10:31.473Z,3.14
2019-02-12T13:11:31.342Z,3.08
2019-02-12T13:12:32.716Z,3.17
2019-02-12T13:13:31.422Z,3.03
2019-02-12T13:14:31.404Z,3.03
2019-02-12T13:15:31.389Z,3.05
2019-02-12T13:16:31.373Z,3.03
2019-02-12T13:17:31.359Z,2.87
2019-02-12T13:18:31.338Z,3.05
2019-02-12T13:19:31.318Z,2.99
2019-02-12T13:20:31.300Z,2.85